sensor_id;sensor_type;location;lat;lon;timestamp;P1;durP1;ratioP1;P2;durP2;ratioP2
30970;SDS011;17651;52.262;10.498;2022-12-18T00:00:11;35.35;;;24.08;;
30970;SDS011;17651;52.262;10.498;2022-12-18T00:02:25;42.20;;;24.88;;
30970;SDS011;17651;52.262;10.498;2022-12-18T00:04:36;44.40;;;26.73;;
30970;SDS011;17651;52.262;10.498;2022-12-18T00:06:47;37.90;;;23.85;;
30970;SDS011;17651;52.262;10.498;2022-12-18T00:08:59;40.00;;;24.10;;
30970;SDS011;17651;52.262;10.498;2022-12-18T00:11:11;40.88;;;25.15;;
30970;SDS011;17651;52.262;10.498;2022-12-18T00:13:23;40.88;;;25.10;;
30970;SDS011;17651;52.262;10.498;2022-12-18T00:15:34;40.75;;;25.45;;
30970;SDS011;17651;52.262;10.498;2022-12-18T00:17:45;42.78;;;24.90;;
30970;SDS011;17651;52.262;10.498;2022-12-18T00:19:57;44.65;;;26.67;;
30970;SDS011;17651;52.262;10.498;2022-12-18T00:22:08;50.20;;;27.58;;
30970;SDS011;17651;52.262;10.498;2022-12-18T00:24:19;45.28;;;26.50;;
30970;SDS011;17651;52.262;10.498;2022-12-18T00:26:31;41.47;;;24.33;;
30970;SDS011;17651;52.262;10.498;2022-12-18T00:28:45;41.85;;;24.63;;
30970;SDS011;17651;52.262;10.498;2022-12-18T00:31:04;45.17;;;25.02;;
30970;SDS011;17651;52.262;10.498;2022-12-18T00:33:15;43.78;;;24.75;;
30970;SDS011;17651;52.262;10.498;2022-12-18T00:35:26;39.50;;;23.25;;
30970;SDS011;17651;52.262;10.498;2022-12-18T00:37:37;37.03;;;23.15;;
30970;SDS011;17651;52.262;10.498;2022-12-18T00:39:48;41.85;;;24.10;;
30970;SDS011;17651;52.262;10.498;2022-12-18T00:41:59;41.22;;;24.98;;
30970;SDS011;17651;52.262;10.498;2022-12-18T00:44:29;39.22;;;23.77;;
30970;SDS011;17651;52.262;10.498;2022-12-18T00:46:40;44.03;;;24.90;;
30970;SDS011;17651;52.262;10.498;2022-12-18T00:48:52;40.78;;;22.65;;
30970;SDS011;17651;52.262;10.498;2022-12-18T00:51:03;43.13;;;25.35;;
30970;SDS011;17651;52.262;10.498;2022-12-18T00:53:14;40.67;;;23.60;;
30970;SDS011;17651;52.262;10.498;2022-12-18T00:55:25;45.53;;;24.10;;
30970;SDS011;17651;52.262;10.498;2022-12-18T00:57:36;38.20;;;23.80;;
30970;SDS011;17651;52.262;10.498;2022-12-18T00:59:48;39.72;;;23.42;;
30970;SDS011;17651;52.262;10.498;2022-12-18T01:01:59;39.72;;;23.10;;
30970;SDS011;17651;52.262;10.498;2022-12-18T01:04:10;40.85;;;23.50;;
30970;SDS011;17651;52.262;10.498;2022-12-18T01:06:21;41.47;;;23.33;;
30970;SDS011;17651;52.262;10.498;2022-12-18T01:08:32;41.05;;;23.40;;
30970;SDS011;17651;52.262;10.498;2022-12-18T01:10:44;36.80;;;22.85;;
30970;SDS011;17651;52.262;10.498;2022-12-18T01:12:55;44.17;;;26.20;;
30970;SDS011;17651;52.262;10.498;2022-12-18T01:15:06;40.33;;;24.75;;
30970;SDS011;17651;52.262;10.498;2022-12-18T01:17:17;41.60;;;24.17;;
30970;SDS011;17651;52.262;10.498;2022-12-18T01:19:28;44.05;;;24.45;;
30970;SDS011;17651;52.262;10.498;2022-12-18T01:21:39;37.53;;;23.38;;
30970;SDS011;17651;52.262;10.498;2022-12-18T01:23:51;39.83;;;22.92;;
30970;SDS011;17651;52.262;10.498;2022-12-18T01:26:07;36.47;;;23.50;;
30970;SDS011;17651;52.262;10.498;2022-12-18T01:28:19;41.28;;;23.83;;
30970;SDS011;17651;52.262;10.498;2022-12-18T01:30:30;38.33;;;23.90;;
30970;SDS011;17651;52.262;10.498;2022-12-18T01:32:41;40.15;;;23.60;;
30970;SDS011;17651;52.262;10.498;2022-12-18T01:34:52;38.45;;;23.23;;
30970;SDS011;17651;52.262;10.498;2022-12-18T01:37:04;40.60;;;22.48;;
30970;SDS011;17651;52.262;10.498;2022-12-18T01:39:15;38.83;;;23.27;;
30970;SDS011;17651;52.262;10.498;2022-12-18T01:41:27;43.88;;;24.50;;
30970;SDS011;17651;52.262;10.498;2022-12-18T01:43:57;41.33;;;22.67;;
30970;SDS011;17651;52.262;10.498;2022-12-18T01:46:09;37.05;;;21.73;;
30970;SDS011;17651;52.262;10.498;2022-12-18T01:48:20;39.95;;;22.52;;
30970;SDS011;17651;52.262;10.498;2022-12-18T01:50:32;38.85;;;23.02;;
30970;SDS011;17651;52.262;10.498;2022-12-18T01:52:54;41.78;;;23.23;;
30970;SDS011;17651;52.262;10.498;2022-12-18T01:55:06;45.05;;;23.98;;
30970;SDS011;17651;52.262;10.498;2022-12-18T01:57:17;43.10;;;24.50;;
30970;SDS011;17651;52.262;10.498;2022-12-18T01:59:28;35.40;;;22.08;;
30970;SDS011;17651;52.262;10.498;2022-12-18T02:01:40;38.65;;;23.08;;
30970;SDS011;17651;52.262;10.498;2022-12-18T02:03:53;42.53;;;23.25;;
30970;SDS011;17651;52.262;10.498;2022-12-18T02:11:07;40.38;;;22.85;;
30970;SDS011;17651;52.262;10.498;2022-12-18T02:15:44;38.63;;;22.30;;
30970;SDS011;17651;52.262;10.498;2022-12-18T02:18:05;37.38;;;22.58;;
30970;SDS011;17651;52.262;10.498;2022-12-18T02:20:23;38.80;;;21.73;;
30970;SDS011;17651;52.262;10.498;2022-12-18T02:27:19;37.53;;;21.63;;
30970;SDS011;17651;52.262;10.498;2022-12-18T02:29:34;33.78;;;21.50;;
30970;SDS011;17651;52.262;10.498;2022-12-18T02:31:54;39.33;;;22.50;;
30970;SDS011;17651;52.262;10.498;2022-12-18T02:34:10;37.35;;;21.98;;
30970;SDS011;17651;52.262;10.498;2022-12-18T02:36:22;39.03;;;22.52;;
30970;SDS011;17651;52.262;10.498;2022-12-18T02:38:34;37.73;;;21.17;;
30970;SDS011;17651;52.262;10.498;2022-12-18T02:40:52;34.88;;;20.25;;
30970;SDS011;17651;52.262;10.498;2022-12-18T02:43:08;37.75;;;20.23;;
30970;SDS011;17651;52.262;10.498;2022-12-18T02:45:19;38.97;;;20.95;;
30970;SDS011;17651;52.262;10.498;2022-12-18T02:47:31;37.70;;;21.17;;
30970;SDS011;17651;52.262;10.498;2022-12-18T02:54:38;34.20;;;19.92;;
30970;SDS011;17651;52.262;10.498;2022-12-18T02:56:54;32.75;;;20.15;;
30970;SDS011;17651;52.262;10.498;2022-12-18T02:59:12;39.03;;;21.10;;
30970;SDS011;17651;52.262;10.498;2022-12-18T03:02:14;35.85;;;20.77;;
30970;SDS011;17651;52.262;10.498;2022-12-18T03:04:15;34.10;;;21.00;;
30970;SDS011;17651;52.262;10.498;2022-12-18T03:06:30;33.80;;;19.77;;
30970;SDS011;17651;52.262;10.498;2022-12-18T03:08:43;31.48;;;19.33;;
30970;SDS011;17651;52.262;10.498;2022-12-18T03:10:58;36.72;;;20.48;;
30970;SDS011;17651;52.262;10.498;2022-12-18T03:13:13;36.00;;;19.95;;
30970;SDS011;17651;52.262;10.498;2022-12-18T03:15:41;35.20;;;19.30;;
30970;SDS011;17651;52.262;10.498;2022-12-18T03:20:10;35.83;;;19.02;;
30970;SDS011;17651;52.262;10.498;2022-12-18T03:22:23;32.50;;;18.75;;
30970;SDS011;17651;52.262;10.498;2022-12-18T03:24:36;35.33;;;19.27;;
30970;SDS011;17651;52.262;10.498;2022-12-18T03:26:54;32.17;;;19.73;;
30970;SDS011;17651;52.262;10.498;2022-12-18T03:29:09;36.20;;;19.25;;
30970;SDS011;17651;52.262;10.498;2022-12-18T03:31:23;31.75;;;18.95;;
30970;SDS011;17651;52.262;10.498;2022-12-18T03:33:47;39.35;;;20.10;;
30970;SDS011;17651;52.262;10.498;2022-12-18T03:36:02;34.78;;;18.05;;
30970;SDS011;17651;52.262;10.498;2022-12-18T03:38:13;35.97;;;19.80;;
30970;SDS011;17651;52.262;10.498;2022-12-18T03:40:39;36.80;;;20.30;;
30970;SDS011;17651;52.262;10.498;2022-12-18T03:42:59;36.70;;;19.63;;
30970;SDS011;17651;52.262;10.498;2022-12-18T03:46:15;39.65;;;20.08;;
30970;SDS011;17651;52.262;10.498;2022-12-18T03:54:39;34.88;;;20.08;;
30970;SDS011;17651;52.262;10.498;2022-12-18T03:56:58;30.58;;;18.63;;
30970;SDS011;17651;52.262;10.498;2022-12-18T03:59:12;36.17;;;19.55;;
30970;SDS011;17651;52.262;10.498;2022-12-18T04:01:58;32.97;;;19.13;;
30970;SDS011;17651;52.262;10.498;2022-12-18T04:04:03;36.03;;;18.65;;
30970;SDS011;17651;52.262;10.498;2022-12-18T04:06:18;33.60;;;18.50;;
30970;SDS011;17651;52.262;10.498;2022-12-18T04:08:30;35.08;;;18.70;;
30970;SDS011;17651;52.262;10.498;2022-12-18T04:10:47;34.00;;;19.25;;
30970;SDS011;17651;52.262;10.498;2022-12-18T04:12:58;30.30;;;18.95;;
30970;SDS011;17651;52.262;10.498;2022-12-18T04:15:10;34.45;;;19.17;;
30970;SDS011;17651;52.262;10.498;2022-12-18T04:17:21;33.47;;;19.65;;
30970;SDS011;17651;52.262;10.498;2022-12-18T04:19:33;34.47;;;20.10;;
30970;SDS011;17651;52.262;10.498;2022-12-18T04:21:46;36.78;;;19.55;;
30970;SDS011;17651;52.262;10.498;2022-12-18T04:23:58;37.60;;;21.10;;
30970;SDS011;17651;52.262;10.498;2022-12-18T04:26:12;38.60;;;20.08;;
30970;SDS011;17651;52.262;10.498;2022-12-18T04:28:39;35.67;;;19.80;;
30970;SDS011;17651;52.262;10.498;2022-12-18T04:30:50;36.50;;;20.73;;
30970;SDS011;17651;52.262;10.498;2022-12-18T04:33:03;37.55;;;20.52;;
30970;SDS011;17651;52.262;10.498;2022-12-18T04:35:15;35.92;;;19.15;;
30970;SDS011;17651;52.262;10.498;2022-12-18T04:37:28;35.35;;;19.95;;
30970;SDS011;17651;52.262;10.498;2022-12-18T04:39:39;36.05;;;18.55;;
30970;SDS011;17651;52.262;10.498;2022-12-18T04:42:00;36.47;;;18.88;;
30970;SDS011;17651;52.262;10.498;2022-12-18T04:44:11;37.95;;;19.02;;
30970;SDS011;17651;52.262;10.498;2022-12-18T04:46:23;37.83;;;20.02;;
30970;SDS011;17651;52.262;10.498;2022-12-18T04:48:36;32.97;;;18.35;;
30970;SDS011;17651;52.262;10.498;2022-12-18T04:50:47;34.55;;;19.63;;
30970;SDS011;17651;52.262;10.498;2022-12-18T04:52:58;34.83;;;18.58;;
30970;SDS011;17651;52.262;10.498;2022-12-18T04:55:09;37.00;;;19.77;;
30970;SDS011;17651;52.262;10.498;2022-12-18T04:57:20;36.70;;;21.05;;
30970;SDS011;17651;52.262;10.498;2022-12-18T04:59:31;32.75;;;19.60;;
30970;SDS011;17651;52.262;10.498;2022-12-18T05:01:42;36.45;;;20.48;;
30970;SDS011;17651;52.262;10.498;2022-12-18T05:03:53;30.40;;;17.90;;
30970;SDS011;17651;52.262;10.498;2022-12-18T05:06:05;38.70;;;20.95;;
30970;SDS011;17651;52.262;10.498;2022-12-18T05:08:16;36.55;;;19.23;;
30970;SDS011;17651;52.262;10.498;2022-12-18T05:10:27;32.95;;;19.38;;
30970;SDS011;17651;52.262;10.498;2022-12-18T05:12:38;35.83;;;19.75;;
30970;SDS011;17651;52.262;10.498;2022-12-18T05:15:08;36.63;;;19.58;;
30970;SDS011;17651;52.262;10.498;2022-12-18T05:17:19;32.03;;;17.38;;
30970;SDS011;17651;52.262;10.498;2022-12-18T05:19:30;34.13;;;19.52;;
30970;SDS011;17651;52.262;10.498;2022-12-18T05:21:41;41.78;;;22.23;;
30970;SDS011;17651;52.262;10.498;2022-12-18T05:23:52;38.55;;;20.35;;
30970;SDS011;17651;52.262;10.498;2022-12-18T05:26:04;39.47;;;20.38;;
30970;SDS011;17651;52.262;10.498;2022-12-18T05:28:15;35.15;;;18.88;;
30970;SDS011;17651;52.262;10.498;2022-12-18T05:30:26;33.67;;;19.17;;
30970;SDS011;17651;52.262;10.498;2022-12-18T05:32:37;32.53;;;19.20;;
30970;SDS011;17651;52.262;10.498;2022-12-18T05:34:48;35.25;;;19.92;;
30970;SDS011;17651;52.262;10.498;2022-12-18T05:36:59;41.85;;;19.63;;
30970;SDS011;17651;52.262;10.498;2022-12-18T05:39:10;35.50;;;19.30;;
30970;SDS011;17651;52.262;10.498;2022-12-18T05:41:21;35.72;;;19.20;;
30970;SDS011;17651;52.262;10.498;2022-12-18T05:43:34;35.35;;;18.60;;
30970;SDS011;17651;52.262;10.498;2022-12-18T05:45:45;37.55;;;19.05;;
30970;SDS011;17651;52.262;10.498;2022-12-18T05:47:56;39.17;;;19.33;;
30970;SDS011;17651;52.262;10.498;2022-12-18T05:50:07;37.63;;;19.75;;
30970;SDS011;17651;52.262;10.498;2022-12-18T05:52:19;33.90;;;19.15;;
30970;SDS011;17651;52.262;10.498;2022-12-18T05:54:30;37.97;;;20.15;;
30970;SDS011;17651;52.262;10.498;2022-12-18T05:56:41;37.13;;;20.00;;
30970;SDS011;17651;52.262;10.498;2022-12-18T05:58:52;35.63;;;19.58;;
30970;SDS011;17651;52.262;10.498;2022-12-18T06:03:18;40.25;;;21.23;;
30970;SDS011;17651;52.262;10.498;2022-12-18T06:05:29;37.67;;;19.27;;
30970;SDS011;17651;52.262;10.498;2022-12-18T06:07:45;41.05;;;20.13;;
30970;SDS011;17651;52.262;10.498;2022-12-18T06:09:56;36.95;;;20.17;;
30970;SDS011;17651;52.262;10.498;2022-12-18T06:12:07;37.10;;;18.92;;
30970;SDS011;17651;52.262;10.498;2022-12-18T06:14:18;37.83;;;19.10;;
30970;SDS011;17651;52.262;10.498;2022-12-18T06:16:29;32.55;;;17.90;;
30970;SDS011;17651;52.262;10.498;2022-12-18T06:18:40;35.25;;;19.80;;
30970;SDS011;17651;52.262;10.498;2022-12-18T06:20:57;38.65;;;19.75;;
30970;SDS011;17651;52.262;10.498;2022-12-18T06:23:08;37.17;;;19.42;;
30970;SDS011;17651;52.262;10.498;2022-12-18T06:25:20;35.55;;;19.92;;
30970;SDS011;17651;52.262;10.498;2022-12-18T06:27:31;36.08;;;19.25;;
30970;SDS011;17651;52.262;10.498;2022-12-18T06:29:43;37.85;;;20.05;;
30970;SDS011;17651;52.262;10.498;2022-12-18T06:31:54;33.90;;;19.40;;
30970;SDS011;17651;52.262;10.498;2022-12-18T06:34:05;37.17;;;20.60;;
30970;SDS011;17651;52.262;10.498;2022-12-18T06:36:17;39.75;;;20.02;;
30970;SDS011;17651;52.262;10.498;2022-12-18T06:38:28;40.88;;;19.90;;
30970;SDS011;17651;52.262;10.498;2022-12-18T06:40:39;42.60;;;21.33;;
30970;SDS011;17651;52.262;10.498;2022-12-18T06:42:50;36.53;;;20.25;;
30970;SDS011;17651;52.262;10.498;2022-12-18T06:45:01;37.72;;;18.88;;
30970;SDS011;17651;52.262;10.498;2022-12-18T06:47:12;35.90;;;19.98;;
30970;SDS011;17651;52.262;10.498;2022-12-18T06:49:23;35.35;;;18.92;;
30970;SDS011;17651;52.262;10.498;2022-12-18T06:51:34;34.33;;;19.08;;
30970;SDS011;17651;52.262;10.498;2022-12-18T06:53:45;36.63;;;19.55;;
30970;SDS011;17651;52.262;10.498;2022-12-18T06:56:04;37.17;;;19.30;;
30970;SDS011;17651;52.262;10.498;2022-12-18T06:58:16;35.92;;;19.10;;
30970;SDS011;17651;52.262;10.498;2022-12-18T07:00:27;40.28;;;18.95;;
30970;SDS011;17651;52.262;10.498;2022-12-18T07:02:38;41.40;;;19.90;;
30970;SDS011;17651;52.262;10.498;2022-12-18T07:04:50;36.53;;;18.55;;
30970;SDS011;17651;52.262;10.498;2022-12-18T07:07:01;41.70;;;20.30;;
30970;SDS011;17651;52.262;10.498;2022-12-18T07:09:12;41.20;;;18.33;;
30970;SDS011;17651;52.262;10.498;2022-12-18T07:11:23;38.58;;;19.48;;
30970;SDS011;17651;52.262;10.498;2022-12-18T07:13:35;42.70;;;21.10;;
30970;SDS011;17651;52.262;10.498;2022-12-18T07:15:46;42.08;;;21.75;;
30970;SDS011;17651;52.262;10.498;2022-12-18T07:17:57;46.17;;;22.85;;
30970;SDS011;17651;52.262;10.498;2022-12-18T07:20:08;34.83;;;19.60;;
30970;SDS011;17651;52.262;10.498;2022-12-18T07:22:19;39.95;;;19.45;;
30970;SDS011;17651;52.262;10.498;2022-12-18T07:24:32;45.92;;;21.15;;
30970;SDS011;17651;52.262;10.498;2022-12-18T07:26:46;40.70;;;17.50;;
30970;SDS011;17651;52.262;10.498;2022-12-18T07:28:57;42.33;;;20.58;;
30970;SDS011;17651;52.262;10.498;2022-12-18T07:31:10;37.60;;;19.83;;
30970;SDS011;17651;52.262;10.498;2022-12-18T07:33:21;42.92;;;19.52;;
30970;SDS011;17651;52.262;10.498;2022-12-18T07:35:33;35.67;;;19.50;;
30970;SDS011;17651;52.262;10.498;2022-12-18T07:37:47;37.80;;;18.58;;
30970;SDS011;17651;52.262;10.498;2022-12-18T07:39:58;44.55;;;19.40;;
30970;SDS011;17651;52.262;10.498;2022-12-18T07:42:09;41.97;;;19.05;;
30970;SDS011;17651;52.262;10.498;2022-12-18T07:44:39;37.45;;;20.05;;
30970;SDS011;17651;52.262;10.498;2022-12-18T07:46:50;42.47;;;20.45;;
30970;SDS011;17651;52.262;10.498;2022-12-18T07:49:01;41.55;;;20.15;;
30970;SDS011;17651;52.262;10.498;2022-12-18T07:51:12;39.92;;;20.60;;
30970;SDS011;17651;52.262;10.498;2022-12-18T07:53:23;45.80;;;21.23;;
30970;SDS011;17651;52.262;10.498;2022-12-18T07:55:35;41.65;;;20.13;;
30970;SDS011;17651;52.262;10.498;2022-12-18T07:57:46;44.55;;;20.90;;
30970;SDS011;17651;52.262;10.498;2022-12-18T07:59:57;40.55;;;20.08;;
30970;SDS011;17651;52.262;10.498;2022-12-18T08:02:08;41.75;;;21.65;;
30970;SDS011;17651;52.262;10.498;2022-12-18T08:04:19;41.85;;;21.38;;
30970;SDS011;17651;52.262;10.498;2022-12-18T08:06:30;42.22;;;21.23;;
30970;SDS011;17651;52.262;10.498;2022-12-18T08:08:41;41.83;;;20.48;;
30970;SDS011;17651;52.262;10.498;2022-12-18T08:10:52;44.55;;;20.73;;
30970;SDS011;17651;52.262;10.498;2022-12-18T08:13:03;41.33;;;20.52;;
30970;SDS011;17651;52.262;10.498;2022-12-18T08:15:14;43.60;;;19.20;;
30970;SDS011;17651;52.262;10.498;2022-12-18T08:17:25;41.67;;;19.48;;
30970;SDS011;17651;52.262;10.498;2022-12-18T08:19:37;39.60;;;18.60;;
30970;SDS011;17651;52.262;10.498;2022-12-18T08:21:48;39.03;;;19.92;;
30970;SDS011;17651;52.262;10.498;2022-12-18T08:24:00;43.15;;;21.00;;
30970;SDS011;17651;52.262;10.498;2022-12-18T08:26:12;44.85;;;20.60;;
30970;SDS011;17651;52.262;10.498;2022-12-18T08:28:23;44.42;;;19.55;;
30970;SDS011;17651;52.262;10.498;2022-12-18T08:30:35;44.03;;;19.10;;
30970;SDS011;17651;52.262;10.498;2022-12-18T08:32:46;42.08;;;20.30;;
30970;SDS011;17651;52.262;10.498;2022-12-18T08:34:59;45.42;;;20.15;;
30970;SDS011;17651;52.262;10.498;2022-12-18T08:37:10;43.58;;;19.52;;
30970;SDS011;17651;52.262;10.498;2022-12-18T08:39:21;39.33;;;18.60;;
30970;SDS011;17651;52.262;10.498;2022-12-18T08:41:32;42.05;;;17.90;;
30970;SDS011;17651;52.262;10.498;2022-12-18T08:43:43;38.83;;;20.45;;
30970;SDS011;17651;52.262;10.498;2022-12-18T08:46:13;42.10;;;19.58;;
30970;SDS011;17651;52.262;10.498;2022-12-18T08:48:27;36.63;;;18.30;;
30970;SDS011;17651;52.262;10.498;2022-12-18T08:50:39;46.00;;;20.67;;
30970;SDS011;17651;52.262;10.498;2022-12-18T08:52:50;44.03;;;18.30;;
30970;SDS011;17651;52.262;10.498;2022-12-18T08:55:01;42.60;;;19.10;;
30970;SDS011;17651;52.262;10.498;2022-12-18T08:57:12;36.95;;;18.63;;
30970;SDS011;17651;52.262;10.498;2022-12-18T08:59:23;39.58;;;19.25;;
30970;SDS011;17651;52.262;10.498;2022-12-18T09:01:34;40.00;;;20.05;;
30970;SDS011;17651;52.262;10.498;2022-12-18T09:03:45;41.72;;;20.70;;
30970;SDS011;17651;52.262;10.498;2022-12-18T09:05:56;41.72;;;19.35;;
30970;SDS011;17651;52.262;10.498;2022-12-18T09:08:07;41.90;;;20.50;;
30970;SDS011;17651;52.262;10.498;2022-12-18T09:10:18;34.80;;;17.98;;
30970;SDS011;17651;52.262;10.498;2022-12-18T09:12:29;37.15;;;17.70;;
30970;SDS011;17651;52.262;10.498;2022-12-18T09:14:41;38.08;;;17.50;;
30970;SDS011;17651;52.262;10.498;2022-12-18T09:16:52;37.90;;;16.90;;
30970;SDS011;17651;52.262;10.498;2022-12-18T09:19:04;41.38;;;19.95;;
30970;SDS011;17651;52.262;10.498;2022-12-18T09:21:18;34.45;;;17.98;;
30970;SDS011;17651;52.262;10.498;2022-12-18T09:23:29;34.67;;;18.02;;
30970;SDS011;17651;52.262;10.498;2022-12-18T09:25:40;31.70;;;16.90;;
30970;SDS011;17651;52.262;10.498;2022-12-18T09:27:51;35.85;;;17.52;;
30970;SDS011;17651;52.262;10.498;2022-12-18T09:30:02;28.30;;;14.38;;
30970;SDS011;17651;52.262;10.498;2022-12-18T09:32:14;35.72;;;19.50;;
30970;SDS011;17651;52.262;10.498;2022-12-18T09:34:25;34.60;;;17.60;;
30970;SDS011;17651;52.262;10.498;2022-12-18T09:36:36;39.30;;;19.23;;
30970;SDS011;17651;52.262;10.498;2022-12-18T09:38:47;36.45;;;15.90;;
30970;SDS011;17651;52.262;10.498;2022-12-18T09:43:32;38.17;;;17.08;;
30970;SDS011;17651;52.262;10.498;2022-12-18T09:45:46;40.28;;;21.90;;
30970;SDS011;17651;52.262;10.498;2022-12-18T09:47:58;41.08;;;19.15;;
30970;SDS011;17651;52.262;10.498;2022-12-18T09:50:34;31.95;;;16.75;;
30970;SDS011;17651;52.262;10.498;2022-12-18T09:52:45;31.40;;;16.98;;
30970;SDS011;17651;52.262;10.498;2022-12-18T09:55:03;38.42;;;18.00;;
30970;SDS011;17651;52.262;10.498;2022-12-18T09:57:17;37.67;;;17.02;;
30970;SDS011;17651;52.262;10.498;2022-12-18T09:59:33;34.67;;;16.55;;
30970;SDS011;17651;52.262;10.498;2022-12-18T10:01:45;35.60;;;17.55;;
30970;SDS011;17651;52.262;10.498;2022-12-18T10:03:56;34.60;;;15.77;;
30970;SDS011;17651;52.262;10.498;2022-12-18T10:06:13;38.13;;;16.67;;
30970;SDS011;17651;52.262;10.498;2022-12-18T10:08:27;34.20;;;18.02;;
30970;SDS011;17651;52.262;10.498;2022-12-18T10:10:48;41.80;;;18.48;;
30970;SDS011;17651;52.262;10.498;2022-12-18T10:15:21;36.72;;;16.95;;
30970;SDS011;17651;52.262;10.498;2022-12-18T10:22:22;38.60;;;18.20;;
30970;SDS011;17651;52.262;10.498;2022-12-18T10:24:39;37.25;;;17.85;;
30970;SDS011;17651;52.262;10.498;2022-12-18T10:26:54;37.58;;;17.42;;
30970;SDS011;17651;52.262;10.498;2022-12-18T10:29:12;35.53;;;17.70;;
30970;SDS011;17651;52.262;10.498;2022-12-18T10:31:24;35.05;;;16.70;;
30970;SDS011;17651;52.262;10.498;2022-12-18T10:33:35;34.95;;;17.25;;
30970;SDS011;17651;52.262;10.498;2022-12-18T10:35:47;35.50;;;16.00;;
30970;SDS011;17651;52.262;10.498;2022-12-18T10:38:03;35.10;;;16.95;;
30970;SDS011;17651;52.262;10.498;2022-12-18T10:40:15;40.75;;;17.15;;
30970;SDS011;17651;52.262;10.498;2022-12-18T10:42:26;35.35;;;17.15;;
30970;SDS011;17651;52.262;10.498;2022-12-18T10:44:37;35.20;;;16.80;;
30970;SDS011;17651;52.262;10.498;2022-12-18T10:46:55;36.22;;;17.02;;
30970;SDS011;17651;52.262;10.498;2022-12-18T10:49:25;31.00;;;15.93;;
30970;SDS011;17651;52.262;10.498;2022-12-18T10:51:37;35.38;;;16.27;;
30970;SDS011;17651;52.262;10.498;2022-12-18T10:53:52;29.70;;;15.93;;
30970;SDS011;17651;52.262;10.498;2022-12-18T10:56:05;31.73;;;16.73;;
30970;SDS011;17651;52.262;10.498;2022-12-18T10:58:21;34.55;;;17.08;;
30970;SDS011;17651;52.262;10.498;2022-12-18T11:00:33;30.17;;;15.77;;
30970;SDS011;17651;52.262;10.498;2022-12-18T11:02:46;34.65;;;17.25;;
30970;SDS011;17651;52.262;10.498;2022-12-18T11:04:57;34.97;;;17.30;;
30970;SDS011;17651;52.262;10.498;2022-12-18T11:07:08;32.10;;;15.63;;
30970;SDS011;17651;52.262;10.498;2022-12-18T11:09:22;34.15;;;16.25;;
30970;SDS011;17651;52.262;10.498;2022-12-18T11:11:33;32.40;;;16.13;;
30970;SDS011;17651;52.262;10.498;2022-12-18T11:13:49;31.65;;;16.23;;
30970;SDS011;17651;52.262;10.498;2022-12-18T11:16:02;32.10;;;15.82;;
30970;SDS011;17651;52.262;10.498;2022-12-18T11:18:17;31.33;;;15.18;;
30970;SDS011;17651;52.262;10.498;2022-12-18T11:20:34;33.70;;;16.25;;
30970;SDS011;17651;52.262;10.498;2022-12-18T11:22:54;30.05;;;16.20;;
30970;SDS011;17651;52.262;10.498;2022-12-18T11:25:18;37.65;;;17.35;;
30970;SDS011;17651;52.262;10.498;2022-12-18T11:27:29;35.90;;;16.83;;
30970;SDS011;17651;52.262;10.498;2022-12-18T11:29:40;36.97;;;17.05;;
30970;SDS011;17651;52.262;10.498;2022-12-18T11:31:51;37.42;;;17.88;;
30970;SDS011;17651;52.262;10.498;2022-12-18T11:36:20;31.20;;;16.23;;
30970;SDS011;17651;52.262;10.498;2022-12-18T11:38:33;31.55;;;15.73;;
30970;SDS011;17651;52.262;10.498;2022-12-18T11:40:47;34.75;;;16.83;;
30970;SDS011;17651;52.262;10.498;2022-12-18T11:43:02;33.33;;;15.45;;
30970;SDS011;17651;52.262;10.498;2022-12-18T11:45:20;27.77;;;16.40;;
30970;SDS011;17651;52.262;10.498;2022-12-18T11:49:45;41.80;;;17.10;;
30970;SDS011;17651;52.262;10.498;2022-12-18T11:52:00;29.38;;;15.18;;
30970;SDS011;17651;52.262;10.498;2022-12-18T11:54:13;33.10;;;16.20;;
30970;SDS011;17651;52.262;10.498;2022-12-18T11:56:31;28.95;;;14.70;;
30970;SDS011;17651;52.262;10.498;2022-12-18T11:58:45;31.13;;;15.02;;
30970;SDS011;17651;52.262;10.498;2022-12-18T12:05:28;27.92;;;13.30;;
30970;SDS011;17651;52.262;10.498;2022-12-18T12:07:49;25.50;;;13.40;;
30970;SDS011;17651;52.262;10.498;2022-12-18T12:10:08;23.63;;;12.73;;
30970;SDS011;17651;52.262;10.498;2022-12-18T12:22:16;28.27;;;13.23;;
30970;SDS011;17651;52.262;10.498;2022-12-18T12:31:49;26.90;;;14.00;;
30970;SDS011;17651;52.262;10.498;2022-12-18T12:36:22;26.30;;;12.70;;
30970;SDS011;17651;52.262;10.498;2022-12-18T12:38:39;23.70;;;12.23;;
30970;SDS011;17651;52.262;10.498;2022-12-18T12:40:54;20.58;;;11.40;;
30970;SDS011;17651;52.262;10.498;2022-12-18T12:43:28;19.63;;;11.50;;
30970;SDS011;17651;52.262;10.498;2022-12-18T12:45:50;23.38;;;12.85;;
30970;SDS011;17651;52.262;10.498;2022-12-18T12:48:01;22.15;;;12.48;;
30970;SDS011;17651;52.262;10.498;2022-12-18T12:50:14;21.02;;;11.95;;
30970;SDS011;17651;52.262;10.498;2022-12-18T12:54:37;24.35;;;12.32;;
30970;SDS011;17651;52.262;10.498;2022-12-18T12:56:59;24.73;;;12.82;;
30970;SDS011;17651;52.262;10.498;2022-12-18T12:59:15;27.48;;;13.40;;
30970;SDS011;17651;52.262;10.498;2022-12-18T13:06:12;22.27;;;13.45;;
30970;SDS011;17651;52.262;10.498;2022-12-18T13:08:31;22.20;;;12.70;;
30970;SDS011;17651;52.262;10.498;2022-12-18T13:10:42;22.38;;;12.18;;
30970;SDS011;17651;52.262;10.498;2022-12-18T13:15:11;21.15;;;12.88;;
30970;SDS011;17651;52.262;10.498;2022-12-18T13:17:28;22.05;;;11.57;;
30970;SDS011;17651;52.262;10.498;2022-12-18T13:19:39;21.38;;;11.68;;
30970;SDS011;17651;52.262;10.498;2022-12-18T13:21:54;26.27;;;12.75;;
30970;SDS011;17651;52.262;10.498;2022-12-18T13:24:15;24.20;;;11.48;;
30970;SDS011;17651;52.262;10.498;2022-12-18T13:26:33;16.95;;;10.77;;
30970;SDS011;17651;52.262;10.498;2022-12-18T13:30:58;23.17;;;12.27;;
30970;SDS011;17651;52.262;10.498;2022-12-18T13:37:39;24.30;;;13.25;;
30970;SDS011;17651;52.262;10.498;2022-12-18T13:39:51;19.60;;;11.93;;
30970;SDS011;17651;52.262;10.498;2022-12-18T13:46:42;17.30;;;11.30;;
30970;SDS011;17651;52.262;10.498;2022-12-18T13:51:36;26.88;;;11.73;;
30970;SDS011;17651;52.262;10.498;2022-12-18T13:53:51;18.45;;;11.57;;
30970;SDS011;17651;52.262;10.498;2022-12-18T13:56:03;25.83;;;12.65;;
30970;SDS011;17651;52.262;10.498;2022-12-18T13:58:14;21.38;;;12.65;;
30970;SDS011;17651;52.262;10.498;2022-12-18T14:00:26;23.00;;;13.93;;
30970;SDS011;17651;52.262;10.498;2022-12-18T14:02:38;25.05;;;13.18;;
30970;SDS011;17651;52.262;10.498;2022-12-18T14:04:50;21.83;;;12.73;;
30970;SDS011;17651;52.262;10.498;2022-12-18T14:07:03;19.20;;;12.80;;
30970;SDS011;17651;52.262;10.498;2022-12-18T14:09:15;25.42;;;14.50;;
30970;SDS011;17651;52.262;10.498;2022-12-18T14:11:28;24.70;;;13.80;;
30970;SDS011;17651;52.262;10.498;2022-12-18T14:13:41;26.13;;;15.45;;
30970;SDS011;17651;52.262;10.498;2022-12-18T14:15:52;27.65;;;15.70;;
30970;SDS011;17651;52.262;10.498;2022-12-18T14:20:18;29.85;;;15.82;;